Time;durP1;ratioP1;P1;durP2;ratioP2;P2;SDS_P1;SDS_P2;PMS_P1;PMS_P2;Temp;Humidity;BMP_temperature;BMP_pressure;BME280_temperature;BME280_humidity;BME280_pressure;Samples;Min_cycle;Max_cycle;Signal;HPM_P1;HPM_P2
2024/04/18 00:00:38;;;;;;;3.57;2.20;;;7.60;99.90;;;;;;5347358;26;20603;-71
2024/04/18 00:03:06;;;;;;;3.20;1.80;;;7.60;99.90;;;;;;5349939;26;20474;-70
2024/04/18 00:05:32;;;;;;;5.20;2.17;;;7.70;99.90;;;;;;5356547;26;20865;-71
2024/04/18 00:08:01;;;;;;;4.37;2.80;;;7.60;99.90;;;;;;5353366;26;21134;-73
2024/04/18 00:10:27;;;;;;;3.13;2.67;;;7.60;99.90;;;;;;5350024;26;20539;-73
2024/04/18 00:12:55;;;;;;;7.50;2.70;;;7.60;99.90;;;;;;5354904;26;21381;-72
2024/04/18 00:15:21;;;;;;;2.73;2.13;;;7.50;99.90;;;;;;5351264;26;20847;-73
2024/04/18 00:17:52;;;;;;;2.43;2.20;;;7.50;99.90;;;;;;5362376;26;20450;-73
2024/04/18 00:20:18;;;;;;;3.77;2.27;;;7.40;99.90;;;;;;5361621;26;20284;-73
2024/04/18 00:22:47;;;;;;;5.43;2.33;;;7.50;99.90;;;;;;5355122;26;21154;-73
2024/04/18 00:25:13;;;;;;;2.20;1.83;;;7.30;99.90;;;;;;5351680;26;20549;-73
2024/04/18 00:27:41;;;;;;;2.73;2.23;;;7.40;99.90;;;;;;5351847;26;20714;-73
2024/04/18 00:30:07;;;;;;;4.67;3.33;;;7.50;99.90;;;;;;5359591;26;20430;-73
2024/04/18 00:32:36;;;;;;;2.07;1.60;;;7.60;99.90;;;;;;5338354;26;20458;-73
2024/04/18 00:35:05;;;;;;;2.83;2.47;;;7.70;99.90;;;;;;5352858;26;21153;-73
2024/04/18 00:37:34;;;;;;;3.03;1.90;;;7.60;99.90;;;;;;5356679;26;20621;-74
2024/04/18 00:40:00;;;;;;;4.90;1.83;;;7.40;99.90;;;;;;5355347;26;20507;-73
2024/04/18 00:42:28;;;;;;;2.93;2.30;;;7.40;99.90;;;;;;5349916;26;20496;-74
2024/04/18 00:44:54;;;;;;;9.20;2.20;;;7.40;99.90;;;;;;5356510;26;20497;-74
2024/04/18 00:47:22;;;;;;;2.37;2.13;;;7.50;99.90;;;;;;5359214;26;20470;-73
2024/04/18 00:49:49;;;;;;;4.70;3.00;;;7.50;99.90;;;;;;5357716;26;20299;-73
2024/04/18 00:52:21;;;;;;;2.40;2.20;;;7.50;99.90;;;;;;5333168;26;20618;-74
2024/04/18 00:54:48;;;;;;;3.03;2.27;;;7.60;99.90;;;;;;5357692;26;20576;-73
2024/04/18 00:57:17;;;;;;;1.93;1.80;;;7.50;99.90;;;;;;5359563;26;20458;-73
2024/04/18 00:59:46;;;;;;;2.63;1.50;;;7.50;99.90;;;;;;5356667;26;20530;-73
2024/04/18 01:02:15;;;;;;;5.93;2.90;;;7.50;99.90;;;;;;5361372;26;20478;-73
2024/04/18 01:04:41;;;;;;;4.63;1.93;;;7.50;99.90;;;;;;5356519;26;20473;-73
2024/04/18 01:07:09;;;;;;;2.60;2.40;;;7.40;99.90;;;;;;5357571;26;20609;-73
2024/04/18 01:09:38;;;;;;;2.83;2.40;;;7.20;99.90;;;;;;5363340;26;20560;-73
2024/04/18 01:12:07;;;;;;;3.43;2.17;;;7.30;99.90;;;;;;5356718;26;20648;-73
2024/04/18 01:14:33;;;;;;;1.80;1.70;;;7.40;99.90;;;;;;5348512;26;21046;-73
2024/04/18 01:17:03;;;;;;;4.93;2.47;;;7.40;99.90;;;;;;5350218;26;20449;-73
2024/04/18 01:19:29;;;;;;;2.30;2.10;;;7.30;99.90;;;;;;5354431;26;20989;-73
2024/04/18 01:21:58;;;;;;;5.10;2.73;;;7.40;99.90;;;;;;5348943;26;20546;-72
2024/04/18 01:24:24;;;;;;;3.40;2.10;;;7.40;99.90;;;;;;5355212;26;20495;-73
2024/04/18 01:26:55;;;;;;;9.00;2.87;;;7.40;99.90;;;;;;5352328;26;20442;-73
2024/04/18 01:29:21;;;;;;;3.10;2.30;;;7.40;99.90;;;;;;5358042;26;20244;-73
2024/04/18 01:31:49;;;;;;;5.07;2.30;;;7.30;99.90;;;;;;5351960;26;21142;-72
2024/04/18 01:34:15;;;;;;;12.00;1.93;;;7.30;99.90;;;;;;5350439;26;20633;-72
2024/04/18 01:36:44;;;;;;;3.93;2.00;;;7.30;99.90;;;;;;5353876;26;20446;-72
2024/04/18 01:39:13;;;;;;;2.33;2.10;;;7.10;99.90;;;;;;5354644;26;20364;-72
2024/04/18 01:41:41;;;;;;;1.80;1.70;;;7.20;99.90;;;;;;5357204;26;20813;-73
2024/04/18 01:44:12;;;;;;;3.57;2.67;;;7.20;99.90;;;;;;5358786;26;20700;-73
2024/04/18 01:46:41;;;;;;;2.70;1.90;;;7.30;99.90;;;;;;5359709;26;20476;-73
2024/04/18 01:49:07;;;;;;;3.87;2.10;;;7.40;99.90;;;;;;5358047;26;20962;-73
2024/04/18 01:51:35;;;;;;;2.27;2.00;;;7.50;99.90;;;;;;5357254;26;20438;-72
2024/04/18 01:54:01;;;;;;;2.73;2.43;;;7.40;99.90;;;;;;5366333;26;20240;-73
2024/04/18 01:56:29;;;;;;;2.50;2.00;;;7.30;99.90;;;;;;5359050;26;20522;-73
2024/04/18 01:58:55;;;;;;;3.43;2.40;;;7.40;99.90;;;;;;5357072;26;20362;-72
2024/04/18 02:01:29;;;;;;;5.13;2.00;;;7.30;99.90;;;;;;5357358;26;21050;-73
2024/04/18 02:03:55;;;;;;;10.73;2.83;;;7.00;99.90;;;;;;5354201;26;20458;-73
2024/04/18 02:06:23;;;;;;;3.10;1.90;;;7.10;99.90;;;;;;5350952;26;20465;-73
2024/04/18 02:08:49;;;;;;;3.03;1.90;;;7.10;99.90;;;;;;5354081;26;20901;-73
2024/04/18 02:11:18;;;;;;;4.70;2.63;;;7.10;99.90;;;;;;5359858;26;20565;-73
2024/04/18 02:13:43;;;;;;;1.93;1.70;;;7.20;99.90;;;;;;5352971;26;20243;-72
2024/04/18 02:16:12;;;;;;;1.73;1.63;;;7.30;99.90;;;;;;5352934;26;20598;-73
2024/04/18 02:18:40;;;;;;;1.83;1.40;;;7.50;99.90;;;;;;5358324;26;20247;-72
2024/04/18 02:21:09;;;;;;;2.17;1.40;;;7.50;99.90;;;;;;5358304;26;20446;-73
2024/04/18 02:23:35;;;;;;;3.73;2.40;;;7.40;99.90;;;;;;5359167;26;21463;-73
2024/04/18 02:26:03;;;;;;;2.83;2.10;;;7.50;99.90;;;;;;5362677;26;20577;-73
2024/04/18 02:28:29;;;;;;;4.20;2.10;;;7.40;99.90;;;;;;5357744;26;20467;-73
2024/04/18 02:31:03;;;;;;;2.83;1.80;;;7.50;99.90;;;;;;5356305;26;20513;-73
2024/04/18 02:33:29;;;;;;;3.63;2.80;;;7.60;99.90;;;;;;5359482;26;20554;-72
2024/04/18 02:36:00;;;;;;;2.07;1.87;;;7.50;99.90;;;;;;5356812;26;20474;-72
2024/04/18 02:38:26;;;;;;;3.90;2.17;;;7.50;99.90;;;;;;5350990;26;20579;-73
2024/04/18 02:41:03;;;;;;;2.10;1.63;;;7.50;99.90;;;;;;5357536;26;20842;-73
2024/04/18 02:43:29;;;;;;;8.40;2.13;;;7.50;99.90;;;;;;5352202;26;20471;-72
2024/04/18 02:45:58;;;;;;;2.43;1.80;;;7.40;99.90;;;;;;5353605;26;20442;-73
2024/04/18 02:48:24;;;;;;;4.70;2.13;;;7.10;99.90;;;;;;5348283;26;20244;-73
2024/04/18 02:50:52;;;;;;;2.77;1.87;;;7.10;99.90;;;;;;5349409;26;20949;-72
2024/04/18 02:53:21;;;;;;;3.77;2.73;;;7.10;99.90;;;;;;5351559;26;20570;-73
2024/04/18 02:55:49;;;;;;;3.60;2.20;;;7.30;99.90;;;;;;5352498;26;20968;-72
2024/04/18 02:58:15;;;;;;;2.50;2.20;;;7.30;99.90;;;;;;5352391;26;20459;-73
2024/04/18 03:00:43;;;;;;;4.43;2.00;;;7.40;99.90;;;;;;5351669;26;21156;-72
2024/04/18 03:03:09;;;;;;;2.00;1.60;;;7.30;99.90;;;;;;5355699;26;20397;-73
2024/04/18 03:05:38;;;;;;;5.57;3.00;;;7.40;99.90;;;;;;5351355;26;20790;-73
2024/04/18 03:08:04;;;;;;;4.73;2.90;;;7.50;99.90;;;;;;5352659;26;21051;-73
2024/04/18 03:10:36;;;;;;;4.17;2.47;;;7.50;99.90;;;;;;5360843;26;21000;-72
2024/04/18 03:13:01;;;;;;;2.23;2.03;;;7.40;99.90;;;;;;5356097;26;20493;-72
2024/04/18 03:15:30;;;;;;;3.47;1.83;;;7.20;99.90;;;;;;5344724;26;21036;-72
2024/04/18 03:17:56;;;;;;;3.43;1.93;;;7.10;99.90;;;;;;5359719;26;20525;-72
2024/04/18 03:20:24;;;;;;;2.07;1.70;;;7.20;99.90;;;;;;5347825;26;20446;-72
2024/04/18 03:22:50;;;;;;;9.30;2.40;;;7.20;99.90;;;;;;5356317;26;20375;-72
2024/04/18 03:25:19;;;;;;;1.97;1.50;;;7.30;99.90;;;;;;5350700;26;20450;-72
2024/04/18 03:27:47;;;;;;;3.97;1.93;;;7.20;99.90;;;;;;5340040;26;20365;-72
2024/04/18 03:30:15;;;;;;;3.23;2.37;;;7.10;99.90;;;;;;5348704;26;20446;-72
2024/04/18 03:32:41;;;;;;;2.10;1.93;;;7.10;99.90;;;;;;5351241;26;20468;-72
2024/04/18 03:35:09;;;;;;;2.80;2.47;;;7.00;99.90;;;;;;5353731;26;20569;-72
2024/04/18 03:37:38;;;;;;;4.57;2.97;;;7.10;99.90;;;;;;5349018;26;20334;-72
2024/04/18 03:40:08;;;;;;;5.13;2.73;;;7.10;99.90;;;;;;5345808;26;20458;-72
2024/04/18 03:42:36;;;;;;;3.70;2.40;;;7.10;99.90;;;;;;5347483;26;20522;-72
2024/04/18 03:45:08;;;;;;;8.77;3.83;;;7.20;99.90;;;;;;5328495;26;20648;-72
2024/04/18 03:47:36;;;;;;;4.60;2.80;;;7.00;99.90;;;;;;5350437;26;20471;-72
2024/04/18 03:50:02;;;;;;;4.80;4.13;;;7.00;99.90;;;;;;5357740;26;20467;-72
2024/04/18 03:52:30;;;;;;;3.30;2.80;;;6.90;99.90;;;;;;5345833;26;20631;-71
2024/04/18 03:54:56;;;;;;;5.03;2.53;;;6.90;99.90;;;;;;5348356;26;21047;-72
2024/04/18 03:57:24;;;;;;;3.70;2.70;;;6.80;99.90;;;;;;5353856;26;20457;-72
2024/04/18 03:59:51;;;;;;;5.83;2.50;;;6.80;99.90;;;;;;5348568;26;20455;-72
2024/04/18 04:02:22;;;;;;;5.83;3.47;;;6.80;99.90;;;;;;5352475;26;20488;-73
2024/04/18 04:04:50;;;;;;;4.33;2.67;;;6.90;99.90;;;;;;5348280;26;20553;-72
2024/04/18 04:07:18;;;;;;;3.27;2.27;;;6.90;99.90;;;;;;5358147;26;20505;-72
2024/04/18 04:09:44;;;;;;;6.67;2.93;;;6.90;99.90;;;;;;5358470;26;20461;-72
2024/04/18 04:12:13;;;;;;;4.10;2.97;;;7.00;99.90;;;;;;5355824;26;20516;-72
2024/04/18 04:14:38;;;;;;;2.43;2.20;;;6.80;99.90;;;;;;5341103;26;21031;-73
2024/04/18 04:17:07;;;;;;;2.70;1.77;;;6.80;99.90;;;;;;5356408;26;20502;-73
2024/04/18 04:19:35;;;;;;;3.53;2.03;;;6.80;99.90;;;;;;5354381;26;20388;-72
2024/04/18 04:22:04;;;;;;;4.27;2.30;;;6.80;99.90;;;;;;5357371;26;20458;-72
2024/04/18 04:24:30;;;;;;;3.00;2.73;;;6.80;99.90;;;;;;5358694;26;20474;-73
2024/04/18 04:26:58;;;;;;;3.70;2.13;;;6.80;99.90;;;;;;5349660;26;20501;-72
2024/04/18 04:29:25;;;;;;;3.60;1.93;;;6.80;99.90;;;;;;5343218;26;20275;-73
2024/04/18 04:31:53;;;;;;;3.73;3.27;;;6.80;99.90;;;;;;5354428;26;21093;-70
2024/04/18 04:34:19;;;;;;;2.10;1.90;;;6.80;99.90;;;;;;5340633;26;20611;-71
2024/04/18 04:36:50;;;;;;;6.90;2.57;;;6.80;99.90;;;;;;5356945;26;20442;-71
2024/04/18 04:39:16;;;;;;;3.10;1.83;;;7.00;99.90;;;;;;5351657;26;20765;-70
2024/04/18 04:41:44;;;;;;;8.07;2.57;;;7.00;99.90;;;;;;5349620;26;20596;-71
2024/04/18 04:44:10;;;;;;;8.83;3.00;;;7.10;99.90;;;;;;5349209;26;20450;-71
2024/04/18 04:46:38;;;;;;;4.60;2.77;;;7.00;99.90;;;;;;5356292;26;20802;-71
2024/04/18 04:50:00;;;;;;;2.40;2.00;;;7.00;99.90;;;;;;5354555;26;20344;-70
2024/04/18 04:52:31;;;;;;;4.23;1.90;;;7.00;99.90;;;;;;5347251;26;20470;-70
2024/04/18 04:54:57;;;;;;;2.70;1.87;;;7.00;99.90;;;;;;5355524;26;20455;-71
2024/04/18 04:57:25;;;;;;;4.13;2.30;;;6.90;99.90;;;;;;5361832;26;21282;-70
2024/04/18 04:59:51;;;;;;;3.50;2.20;;;6.90;99.90;;;;;;5361972;26;20340;-71
2024/04/18 05:02:19;;;;;;;4.30;3.13;;;7.00;99.90;;;;;;5358078;26;20974;-71
2024/04/18 05:04:45;;;;;;;2.13;1.93;;;7.00;99.90;;;;;;5352005;26;20812;-70
2024/04/18 05:07:13;;;;;;;3.27;2.17;;;7.00;99.90;;;;;;5350593;26;20487;-70
2024/04/18 05:09:42;;;;;;;4.73;2.60;;;7.00;99.90;;;;;;5355662;26;20598;-69
2024/04/18 05:12:10;;;;;;;3.87;3.07;;;7.10;99.90;;;;;;5365955;26;20937;-70
2024/04/18 05:14:36;;;;;;;8.10;2.60;;;7.20;99.90;;;;;;5345799;26;20529;-70
2024/04/18 05:17:05;;;;;;;3.23;2.30;;;7.20;99.90;;;;;;5356118;26;20905;-72
2024/04/18 05:19:31;;;;;;;2.47;2.27;;;7.00;99.90;;;;;;5358522;26;20240;-72
2024/04/18 05:21:59;;;;;;;3.77;2.70;;;6.90;99.90;;;;;;5355635;26;20637;-72
2024/04/18 05:24:25;;;;;;;5.70;2.80;;;7.00;99.90;;;;;;5362991;26;20482;-72
2024/04/18 05:26:56;;;;;;;3.43;2.67;;;7.00;99.90;;;;;;5357927;26;20469;-72
2024/04/18 05:32:09;;;;;;;2.30;2.10;;;7.20;99.90;;;;;;5359105;26;20512;-70
2024/04/18 05:34:35;;;;;;;5.33;2.93;;;7.00;99.90;;;;;;5354536;26;21074;-70
2024/04/18 05:37:03;;;;;;;2.73;1.93;;;7.10;99.90;;;;;;5355503;26;20459;-70
2024/04/18 05:39:32;;;;;;;5.90;1.80;;;7.10;99.90;;;;;;5353873;26;20274;-70
2024/04/18 05:42:03;;;;;;;6.47;2.20;;;7.10;99.90;;;;;;5357937;26;20566;-71
2024/04/18 05:44:39;;;;;;;5.17;3.07;;;7.10;99.90;;;;;;5351735;26;20560;-71
2024/04/18 05:47:08;;;;;;;5.60;3.17;;;7.00;99.90;;;;;;5354630;26;20502;-71
2024/04/18 05:49:36;;;;;;;5.00;2.73;;;7.10;99.90;;;;;;5355673;26;21124;-71
2024/04/18 05:52:05;;;;;;;5.10;2.57;;;7.10;99.90;;;;;;5354037;26;20533;-70
2024/04/18 05:54:34;;;;;;;2.70;2.30;;;7.00;99.90;;;;;;5356031;26;20525;-71
2024/04/18 05:57:03;;;;;;;3.30;2.40;;;7.00;99.90;;;;;;5354107;26;20474;-73
2024/04/18 05:59:31;;;;;;;3.10;1.77;;;7.10;99.90;;;;;;5346457;26;20470;-73
2024/04/18 06:01:59;;;;;;;3.60;1.90;;;7.10;99.90;;;;;;5365508;26;20877;-73
2024/04/18 06:04:28;;;;;;;1.93;1.73;;;7.40;99.90;;;;;;5358508;26;20588;-73
2024/04/18 06:06:56;;;;;;;12.93;2.17;;;7.70;99.90;;;;;;5356273;26;20589;-73
2024/04/18 06:09:24;;;;;;;2.93;2.07;;;7.80;99.90;;;;;;5356372;26;20538;-73
2024/04/18 06:11:53;;;;;;;3.60;1.60;;;8.00;99.90;;;;;;5359613;26;20612;-71
2024/04/18 06:14:24;;;;;;;2.80;1.77;;;8.20;99.90;;;;;;5348769;26;20446;-70
2024/04/18 06:16:53;;;;;;;2.50;1.80;;;8.30;99.90;;;;;;5356206;26;20628;-70
2024/04/18 06:19:21;;;;;;;3.60;2.10;;;8.20;99.90;;;;;;5355237;26;20509;-71
2024/04/18 06:21:49;;;;;;;1.77;1.53;;;8.20;99.90;;;;;;5356650;26;20578;-71
2024/04/18 06:24:18;;;;;;;2.17;1.50;;;8.10;99.90;;;;;;5357509;26;20961;-70
2024/04/18 06:26:46;;;;;;;2.70;1.40;;;8.00;99.90;;;;;;5343580;26;20663;-70
2024/04/18 06:29:15;;;;;;;2.50;1.67;;;8.00;99.90;;;;;;5356870;26;20558;-70
2024/04/18 06:31:46;;;;;;;4.50;1.73;;;7.90;99.90;;;;;;5349458;26;20454;-70
2024/04/18 06:34:14;;;;;;;2.55;1.77;;;8.10;99.90;;;;;;5355462;26;20366;-70
2024/04/18 06:36:43;;;;;;;2.90;1.83;;;8.10;99.90;;;;;;5355732;26;20342;-70
2024/04/18 06:39:12;;;;;;;3.00;2.13;;;8.20;99.90;;;;;;5365934;26;20459;-69
2024/04/18 06:41:40;;;;;;;13.00;2.03;;;8.10;99.90;;;;;;5360514;26;20454;-70
2024/04/18 06:44:06;;;;;;;1.77;1.30;;;8.00;99.90;;;;;;5353734;26;20525;-69
2024/04/18 06:46:35;;;;;;;2.60;2.40;;;8.10;99.90;;;;;;5355670;26;20823;-70
2024/04/18 06:49:06;;;;;;;2.30;1.50;;;8.00;99.90;;;;;;5348585;26;20371;-70
2024/04/18 06:51:35;;;;;;;2.37;1.57;;;8.10;99.90;;;;;;5361303;26;20533;-70
2024/04/18 06:54:03;;;;;;;1.73;1.30;;;8.10;99.90;;;;;;5365578;26;20591;-70
2024/04/18 06:56:32;;;;;;;15.90;2.30;;;8.00;99.90;;;;;;5347571;26;20608;-70
2024/04/18 06:59:00;;;;;;;2.00;1.77;;;8.20;99.90;;;;;;5358997;26;20466;-70
2024/04/18 07:01:28;;;;;;;4.23;1.80;;;8.30;99.90;;;;;;5360903;26;20731;-70
2024/04/18 07:03:57;;;;;;;2.50;1.20;;;8.50;99.90;;;;;;5357080;26;20997;-73
2024/04/18 07:06:28;;;;;;;3.70;2.23;;;8.90;99.90;;;;;;5351529;26;20723;-73
2024/04/18 07:08:57;;;;;;;2.53;1.20;;;9.40;99.90;;;;;;5353154;26;20556;-73
2024/04/18 07:11:25;;;;;;;6.73;1.87;;;10.20;99.90;;;;;;5365425;26;20488;-73
2024/04/18 07:13:54;;;;;;;3.30;1.47;;;10.90;99.90;;;;;;5351114;26;21215;-73
2024/04/18 07:16:22;;;;;;;2.03;1.47;;;11.60;99.90;;;;;;5354172;26;20553;-73
2024/04/18 07:18:48;;;;;;;3.57;1.50;;;11.80;99.90;;;;;;5348869;26;20538;-73
2024/04/18 07:21:17;;;;;;;2.03;1.87;;;11.60;99.90;;;;;;5359359;26;20877;-73
2024/04/18 07:23:48;;;;;;;2.40;1.47;;;11.60;99.90;;;;;;5350462;26;20339;-72
2024/04/18 07:26:17;;;;;;;1.53;1.17;;;11.50;99.90;;;;;;5357149;26;20623;-73
2024/04/18 07:28:45;;;;;;;2.53;1.80;;;11.90;99.90;;;;;;5352938;26;21055;-73
2024/04/18 07:31:11;;;;;;;2.60;1.50;;;11.90;99.90;;;;;;5354184;26;20568;-73
2024/04/18 07:33:39;;;;;;;2.53;1.57;;;11.90;99.90;;;;;;5356853;26;20477;-74
2024/04/18 07:36:08;;;;;;;2.70;1.30;;;12.70;99.90;;;;;;5350484;26;20619;-73
2024/04/18 07:38:36;;;;;;;2.73;1.40;;;13.30;99.90;;;;;;5349478;26;20532;-73
2024/04/18 07:41:08;;;;;;;4.10;1.17;;;13.70;99.90;;;;;;5359740;26;20477;-73
2024/04/18 07:43:36;;;;;;;1.23;1.07;;;13.20;99.90;;;;;;5353477;26;20834;-73
2024/04/18 07:46:06;;;;;;;3.40;1.30;;;12.70;99.90;;;;;;5356420;26;21170;-72
2024/04/18 07:48:34;;;;;;;1.50;1.10;;;12.50;99.90;;;;;;5361567;26;20485;-73
2024/04/18 07:51:03;;;;;;;2.90;1.30;;;12.10;99.90;;;;;;5352614;26;20582;-73
2024/04/18 07:53:31;;;;;;;1.43;1.13;;;11.60;99.90;;;;;;5351776;26;20482;-74
2024/04/18 07:55:57;;;;;;;2.93;1.17;;;11.60;99.90;;;;;;5354357;26;20470;-73
2024/04/18 07:58:28;;;;;;;9.00;1.67;;;11.60;99.90;;;;;;5351218;26;20538;-73
2024/04/18 08:00:57;;;;;;;2.80;1.27;;;11.50;99.90;;;;;;5346296;26;20590;-74
2024/04/18 08:03:25;;;;;;;1.97;1.47;;;11.70;99.90;;;;;;5354593;26;20602;-73
2024/04/18 08:05:53;;;;;;;1.90;1.50;;;11.90;99.90;;;;;;5346225;26;20485;-74
2024/04/18 08:08:22;;;;;;;1.60;1.50;;;12.00;99.90;;;;;;5355677;26;20485;-74
2024/04/18 08:10:50;;;;;;;4.57;1.30;;;12.10;99.90;;;;;;5349756;26;20530;-73
2024/04/18 08:13:19;;;;;;;3.00;1.70;;;11.90;99.90;;;;;;5355188;26;20491;-73
2024/04/18 08:15:50;;;;;;;2.00;1.37;;;12.10;99.90;;;;;;5352645;26;20541;-73
2024/04/18 08:18:19;;;;;;;6.50;1.83;;;12.70;99.90;;;;;;5354982;26;20490;-73
2024/04/18 08:20:48;;;;;;;5.00;2.03;;;13.40;99.90;;;;;;5347279;26;20533;-74
2024/04/18 08:23:20;;;;;;;6.03;1.73;;;14.30;99.90;;;;;;5355099;26;20855;-74
2024/04/18 08:25:48;;;;;;;3.10;1.30;;;14.90;99.90;;;;;;5356124;26;20831;-74
2024/04/18 08:28:17;;;;;;;1.40;1.00;;;15.20;99.90;;;;;;5356712;26;20462;-74
2024/04/18 08:30:46;;;;;;;2.37;1.87;;;15.10;99.90;;;;;;5349191;26;20482;-73
2024/04/18 08:33:17;;;;;;;9.20;2.50;;;14.80;99.90;;;;;;5352963;26;20524;-74
2024/04/18 08:35:46;;;;;;;2.40;1.40;;;14.50;99.90;;;;;;5350875;26;20481;-74
2024/04/18 08:38:14;;;;;;;2.40;1.53;;;14.50;99.90;;;;;;5351621;26;20530;-73
2024/04/18 08:40:44;;;;;;;3.80;1.90;;;14.80;99.90;;;;;;5357781;26;20573;-73
2024/04/18 08:43:13;;;;;;;1.87;1.63;;;14.60;99.90;;;;;;5353311;26;20454;-74
2024/04/18 08:45:43;;;;;;;2.20;1.57;;;14.30;99.90;;;;;;5347474;26;20692;-73
2024/04/18 08:48:13;;;;;;;1.47;1.10;;;14.30;99.90;;;;;;5354535;26;20553;-73
2024/04/18 08:50:45;;;;;;;4.70;1.67;;;13.90;99.90;;;;;;5356424;26;20818;-74
2024/04/18 08:53:14;;;;;;;4.50;1.97;;;13.50;99.90;;;;;;5354628;26;20485;-73
2024/04/18 08:55:48;;;;;;;3.37;1.20;;;13.40;99.90;;;;;;5354392;26;20481;-74
2024/04/18 08:58:17;;;;;;;5.57;1.70;;;14.20;99.90;;;;;;5349372;26;21213;-73
2024/04/18 09:00:47;;;;;;;3.40;1.77;;;15.20;99.90;;;;;;5353432;26;20465;-73
2024/04/18 09:03:15;;;;;;;12.97;2.50;;;15.00;99.90;;;;;;5356921;26;20487;-74
2024/04/18 09:05:46;;;;;;;2.43;1.20;;;14.40;99.90;;;;;;5359319;26;20541;-73
2024/04/18 09:08:12;;;;;;;2.17;1.43;;;15.10;99.90;;;;;;5363757;26;20915;-73
2024/04/18 09:10:42;;;;;;;2.67;1.40;;;15.90;99.90;;;;;;5360768;26;20481;-74
2024/04/18 09:13:11;;;;;;;2.30;1.20;;;17.40;99.90;;;;;;5353304;26;20486;-74
2024/04/18 09:15:39;;;;;;;6.10;1.73;;;18.80;99.90;;;;;;5352090;26;20596;-74
2024/04/18 09:18:09;;;;;;;3.50;1.67;;;18.70;99.90;;;;;;5363811;26;20471;-74
2024/04/18 09:20:39;;;;;;;8.77;1.30;;;18.60;99.90;;;;;;5359076;26;20486;-73
2024/04/18 09:23:11;;;;;;;3.90;1.23;;;18.50;99.90;;;;;;5347716;26;21047;-74
2024/04/18 09:25:40;;;;;;;2.57;1.50;;;17.30;99.90;;;;;;5361909;26;21109;-74
2024/04/18 09:28:08;;;;;;;3.10;1.90;;;16.10;99.90;;;;;;5349973;26;20553;-74
2024/04/18 09:30:38;;;;;;;11.23;1.27;;;15.40;99.90;;;;;;5364592;26;23235;-73
2024/04/18 09:33:07;;;;;;;4.97;1.40;;;14.70;99.90;;;;;;5354270;26;20527;-73
2024/04/18 09:35:37;;;;;;;4.70;1.60;;;15.70;99.90;;;;;;5363099;26;20587;-74
2024/04/18 09:38:09;;;;;;;1.40;1.20;;;15.90;99.90;;;;;;5355003;26;20596;-72
2024/04/18 09:40:40;;;;;;;1.47;1.10;;;16.20;99.90;;;;;;5353700;26;23854;-73
2024/04/18 09:43:18;;;;;;;1.57;1.23;;;16.90;99.90;;;;;;5355489;26;20541;-73
2024/04/18 09:45:51;;;;;;;3.13;1.40;;;16.80;99.90;;;;;;5351286;26;20474;-74
2024/04/18 09:48:20;;;;;;;1.27;1.07;;;16.60;99.90;;;;;;5352780;26;20477;-74
2024/04/18 09:50:49;;;;;;;1.90;1.30;;;15.80;99.90;;;;;;5352285;26;20801;-74
2024/04/18 09:53:22;;;;;;;2.40;1.13;;;15.10;99.90;;;;;;5358385;26;21014;-74
2024/04/18 09:55:52;;;;;;;1.80;1.13;;;15.40;99.90;;;;;;5345697;26;20727;-74
2024/04/18 09:58:21;;;;;;;1.33;1.03;;;15.00;99.90;;;;;;5351216;26;20486;-73
2024/04/18 10:00:50;;;;;;;6.10;1.80;;;14.70;99.90;;;;;;5347758;26;20547;-73
2024/04/18 10:03:19;;;;;;;5.10;1.20;;;14.50;99.90;;;;;;5354629;26;20553;-73
2024/04/18 10:05:51;;;;;;;6.03;1.60;;;14.30;99.90;;;;;;5360054;26;20600;-74
2024/04/18 10:08:29;;;;;;;1.10;0.97;;;14.30;99.90;;;;;;5358812;26;20582;-73
2024/04/18 10:10:58;;;;;;;1.83;1.00;;;14.30;99.90;;;;;;5362869;26;21109;-74
2024/04/18 10:13:27;;;;;;;2.87;1.10;;;14.90;99.90;;;;;;5350863;26;21233;-74
2024/04/18 10:16:05;;;;;;;1.80;1.37;;;16.10;99.90;;;;;;5351305;26;21090;-74
2024/04/18 10:18:37;;;;;;;1.83;0.90;;;16.60;99.90;;;;;;5354797;26;20530;-74
2024/04/18 10:21:09;;;;;;;1.20;0.97;;;15.60;99.90;;;;;;5348604;26;20482;-74
2024/04/18 10:23:47;;;;;;;2.40;1.30;;;14.90;99.90;;;;;;5358612;26;21017;-73
2024/04/18 10:26:17;;;;;;;2.10;1.13;;;14.40;99.90;;;;;;5352267;26;20975;-74
2024/04/18 10:28:47;;;;;;;3.00;1.57;;;16.00;99.90;;;;;;5354628;26;20483;-74
2024/04/18 10:31:16;;;;;;;5.37;0.90;;;17.70;98.00;;;;;;5354101;26;20982;-74
2024/04/18 10:33:45;;;;;;;1.23;1.00;;;18.70;97.10;;;;;;5361829;26;20636;-73
2024/04/18 10:36:16;;;;;;;3.63;1.10;;;18.90;96.10;;;;;;5346129;26;20664;-74
2024/04/18 10:38:48;;;;;;;1.53;1.33;;;19.70;96.10;;;;;;5358336;26;20481;-74
2024/04/18 10:41:18;;;;;;;3.20;1.77;;;20.20;95.00;;;;;;5351014;26;20467;-74
2024/04/18 10:43:47;;;;;;;2.23;1.40;;;19.10;94.30;;;;;;5361177;26;20489;-74
2024/04/18 10:46:16;;;;;;;3.73;1.40;;;17.80;94.10;;;;;;5348514;26;20731;-74
2024/04/18 10:48:44;;;;;;;1.80;1.50;;;16.90;95.10;;;;;;5356224;26;20503;-74
2024/04/18 10:51:13;;;;;;;3.03;1.20;;;16.00;95.80;;;;;;5358491;26;20806;-73
2024/04/18 10:53:41;;;;;;;2.80;1.20;;;15.40;97.60;;;;;;5365443;26;20541;-74
2024/04/18 10:56:12;;;;;;;3.10;1.73;;;15.20;96.90;;;;;;5361493;26;20612;-73
2024/04/18 10:58:41;;;;;;;2.23;1.10;;;14.80;95.30;;;;;;5361357;26;20931;-73
2024/04/18 11:01:09;;;;;;;1.70;1.43;;;14.80;95.40;;;;;;5357822;26;20538;-74
2024/04/18 11:03:38;;;;;;;3.97;1.30;;;16.00;92.50;;;;;;5353544;26;20549;-74
2024/04/18 11:06:06;;;;;;;1.37;1.20;;;18.00;92.20;;;;;;5358897;26;20527;-74
2024/04/18 11:08:32;;;;;;;2.63;1.30;;;19.50;89.70;;;;;;5364979;26;20485;-73
2024/04/18 11:11:01;;;;;;;2.13;1.07;;;20.30;87.20;;;;;;5359914;26;20678;-73
2024/04/18 11:13:32;;;;;;;3.67;1.10;;;20.30;83.20;;;;;;5360533;26;20529;-74
2024/04/18 11:16:01;;;;;;;1.20;0.90;;;20.20;78.20;;;;;;5355597;26;20572;-74
2024/04/18 11:18:29;;;;;;;1.27;1.03;;;20.00;78.10;;;;;;5364087;26;20490;-73
2024/04/18 11:20:58;;;;;;;2.17;1.30;;;19.90;75.80;;;;;;5365230;26;20485;-74
2024/04/18 11:23:27;;;;;;;1.77;1.43;;;20.00;73.30;;;;;;5361420;26;20540;-73
2024/04/18 11:25:56;;;;;;;1.80;1.30;;;21.00;71.30;;;;;;5363817;26;21123;-74
2024/04/18 11:28:26;;;;;;;1.10;0.90;;;21.60;67.50;;;;;;5367293;26;21241;-73
2024/04/18 11:30:57;;;;;;;1.47;1.13;;;21.40;63.20;;;;;;5362696;26;20497;-73
2024/04/18 11:33:26;;;;;;;4.17;1.20;;;21.40;68.90;;;;;;5356687;26;20478;-74
2024/04/18 11:35:52;;;;;;;1.70;1.30;;;22.00;66.80;;;;;;5356810;26;20561;-74
2024/04/18 11:38:20;;;;;;;1.60;0.90;;;21.00;62.50;;;;;;5358460;26;20512;-73
2024/04/18 11:40:49;;;;;;;1.63;1.10;;;20.40;65.70;;;;;;5361410;26;20584;-72
2024/04/18 11:43:17;;;;;;;1.70;1.10;;;19.80;67.50;;;;;;5364229;26;20532;-73
2024/04/18 11:45:46;;;;;;;1.67;1.10;;;18.80;70.60;;;;;;5363711;26;20485;-75
2024/04/18 11:48:17;;;;;;;2.00;1.00;;;18.90;72.30;;;;;;5353302;26;20475;-74
2024/04/18 11:50:45;;;;;;;1.37;1.10;;;19.90;67.70;;;;;;5361113;26;21226;-74
2024/04/18 11:53:14;;;;;;;5.27;1.60;;;21.10;67.30;;;;;;5356697;26;21129;-74
2024/04/18 11:55:42;;;;;;;3.77;1.40;;;21.50;65.70;;;;;;5362563;26;21402;-73
2024/04/18 11:58:11;;;;;;;1.10;0.80;;;21.60;60.20;;;;;;5349476;26;20492;-73
2024/04/18 12:00:39;;;;;;;2.50;1.37;;;21.80;59.10;;;;;;5353675;26;20872;-74
2024/04/18 12:03:09;;;;;;;2.33;1.00;;;21.60;58.40;;;;;;5348688;26;20949;-74
2024/04/18 12:05:40;;;;;;;3.37;1.53;;;21.50;67.40;;;;;;5354731;26;21169;-74
2024/04/18 12:08:08;;;;;;;3.57;1.73;;;21.40;62.60;;;;;;5352544;26;20716;-73
2024/04/18 12:10:37;;;;;;;2.83;1.30;;;21.20;64.00;;;;;;5359625;26;20600;-73
2024/04/18 12:13:06;;;;;;;3.13;1.33;;;20.10;61.20;;;;;;5347185;26;20640;-76
2024/04/18 12:15:35;;;;;;;1.67;1.33;;;19.40;61.90;;;;;;5356624;26;20475;-73
2024/04/18 12:18:04;;;;;;;1.50;1.10;;;17.90;65.60;;;;;;5354741;26;20529;-73
2024/04/18 12:20:33;;;;;;;7.63;1.67;;;17.10;68.20;;;;;;5359970;26;21431;-74
2024/04/18 12:23:04;;;;;;;1.77;1.40;;;17.20;69.80;;;;;;5360816;26;20497;-73
2024/04/18 12:25:32;;;;;;;1.57;1.13;;;17.60;69.80;;;;;;5358658;26;21147;-74
2024/04/18 12:28:00;;;;;;;2.13;1.37;;;18.20;67.70;;;;;;5360575;26;21094;-74
2024/04/18 12:30:29;;;;;;;1.90;1.50;;;19.80;68.80;;;;;;5354969;26;20486;-74
2024/04/18 12:32:57;;;;;;;1.20;1.00;;;20.40;67.90;;;;;;5363109;26;21195;-72
2024/04/18 12:35:26;;;;;;;1.30;0.80;;;20.60;65.80;;;;;;5353195;26;20883;-73
2024/04/18 12:37:55;;;;;;;1.57;1.30;;;20.20;64.60;;;;;;5360189;26;20572;-72
2024/04/18 12:40:26;;;;;;;1.63;1.00;;;19.60;65.10;;;;;;5354049;26;20527;-74
2024/04/18 12:42:55;;;;;;;1.60;1.30;;;19.80;69.10;;;;;;5359372;26;20614;-74
2024/04/18 12:45:23;;;;;;;2.73;1.70;;;19.80;66.60;;;;;;5360340;26;21148;-73
2024/04/18 12:47:59;;;;;;;1.87;0.97;;;20.90;66.60;;;;;;5365774;26;20604;-73
2024/04/18 12:50:29;;;;;;;2.87;1.10;;;20.30;64.70;;;;;;5364137;26;20566;-73
2024/04/18 12:52:58;;;;;;;3.40;1.10;;;18.10;63.90;;;;;;5359502;26;20474;-74
2024/04/18 12:55:29;;;;;;;6.07;2.23;;;16.90;67.80;;;;;;5363620;26;20468;-74
2024/04/18 12:57:58;;;;;;;3.13;1.23;;;16.70;66.60;;;;;;5364046;26;20814;-73
2024/04/18 13:00:27;;;;;;;2.27;1.37;;;16.60;67.90;;;;;;5353725;26;20591;-72
2024/04/18 13:02:55;;;;;;;2.03;1.07;;;16.20;70.30;;;;;;5363048;26;20899;-73